»·PEaware :: N1121L KASE-KLAS

N1121L :: KASE-KLAS

FLIGHT INFORMATION

Flight Status: Arrived
Operator: Privately registered:
United States
More flights under this callsign
Pilot: Heberto L. (27891)
Aircraft: SOCATA TBM-900
(TBM9)
More flights by this aircraft type
Origin: KASE Aspen-Pitkin Co/Sardy
United States
Destination: KLAS McCarran Intl
United States
More flights between these airports :: More routes between these airports
Route: +LINDZ9 JNC HVE J60 BCE LUXOR2
File this flight plan on PilotEdge
Remarks: RMK / SIMBRIEF
Altitude:
(Current/Filed)
22,000ft
Speed:
(Current/Filed)
305kts
Departed: 25-Mar-20 06:07 PM
Arrived: 25-Mar-20 08:22 PM
Distance/Time
Traveled:
437nm/2:15
Distance/Time
To Go:
Arrived

Flight Plot

Page will automatically refresh every two minutes.

Flight plan parsing failed; only flown route is shown


Map Options




Map Legend


Flown Route
Filed Route
Departure Airport
Arrival Airport
Navaid (VOR, NDB)
Fix

Horizontal Profiles

Position Reports

Time Latitude Longitude Heading Altitude Ground
Speed
25-Mar-20 17:41 39.227079 -106.869215 250 7837ft 0kts
25-Mar-20 17:42 39.227079 -106.869215 250 7837ft 0kts
25-Mar-20 17:43 39.227079 -106.869215 250 7837ft 0kts
25-Mar-20 17:44 39.227079 -106.869215 250 7837ft 0kts
25-Mar-20 17:45 39.227079 -106.869215 250 7837ft 0kts
25-Mar-20 17:46 39.227079 -106.869215 250 7837ft 0kts
25-Mar-20 17:47 39.227079 -106.869215 250 7837ft 0kts
25-Mar-20 17:48 39.227079 -106.869215 250 7837ft 0kts
25-Mar-20 17:49 39.227079 -106.869215 250 7837ft 0kts
25-Mar-20 17:50 39.227079 -106.869215 250 7837ft 0kts
25-Mar-20 17:51 39.227079 -106.869215 250 7837ft 0kts
25-Mar-20 17:52 39.227079 -106.869215 250 7837ft 0kts
25-Mar-20 17:53 39.227079 -106.869215 250 7837ft 0kts
25-Mar-20 17:54 39.227079 -106.869215 250 7837ft 0kts
25-Mar-20 17:55 39.227079 -106.869215 250 7837ft 0kts
25-Mar-20 17:56 39.227079 -106.869215 250 7837ft 0kts
25-Mar-20 17:57 39.227079 -106.869215 250 7837ft 0kts
25-Mar-20 17:57 39.227079 -106.869215 250 7837ft 0kts
25-Mar-20 17:59 39.227079 -106.869216 250 7837ft 0kts
25-Mar-20 18:00 39.227079 -106.869216 250 7837ft 0kts
25-Mar-20 18:00 39.226662 -106.869324 161 7837ft 6kts
25-Mar-20 18:02 39.222822 -106.867497 159 7837ft 16kts
25-Mar-20 18:03 39.217903 -106.865165 161 7837ft 20kts
25-Mar-20 18:03 39.213471 -106.863092 159 7837ft 18kts
25-Mar-20 18:04 39.212261 -106.862572 174 7837ft 0kts
25-Mar-20 18:05 39.211822 -106.863193 277 7837ft 7kts
25-Mar-20 18:06 39.216097 -106.865491 339 7837ft 80kts
25-Mar-20 18:07 39.248775 -106.878801 353 8723ft 145kts
25-Mar-20 18:08 39.284534 -106.910760 265 9340ft 200kts
25-Mar-20 18:09 39.293714 -106.980078 276 10409ft 182kts
25-Mar-20 18:10 39.301720 -107.027860 269 13193ft 93kts
25-Mar-20 18:11 39.313425 -107.060556 299 14465ft 137kts
25-Mar-20 18:12 39.347126 -107.104299 303 15348ft 196kts
25-Mar-20 18:13 39.385799 -107.159245 274 16090ft 198kts
25-Mar-20 18:14 39.375320 -107.227168 254 17034ft 188kts
25-Mar-20 18:15 39.362934 -107.290962 255 18191ft 177kts
25-Mar-20 18:16 39.351226 -107.351067 254 19346ft 166kts
25-Mar-20 18:17 39.340159 -107.407679 254 20493ft 156kts
25-Mar-20 18:18 39.329467 -107.462104 254 21658ft 159kts
25-Mar-20 18:19 39.317794 -107.521416 254 22001ft 185kts
25-Mar-20 18:20 39.304295 -107.589824 254 21917ft 203kts
25-Mar-20 18:27 39.248283 -107.806915 247 22000ft 214kts
25-Mar-20 18:28 39.223563 -107.879223 247 21998ft 211kts
25-Mar-20 18:29 39.199103 -107.950881 247 21998ft 210kts
25-Mar-20 18:30 39.192704 -108.025879 275 21997ft 221kts
25-Mar-20 18:31 39.198851 -108.104011 257 21961ft 211kts
25-Mar-20 18:32 39.185622 -108.180677 253 21930ft 210kts
25-Mar-20 18:33 39.170619 -108.255265 253 21901ft 210kts
25-Mar-20 18:34 39.155685 -108.328382 253 21900ft 209kts
25-Mar-20 18:35 39.140681 -108.401524 253 21899ft 209kts
25-Mar-20 18:36 39.125621 -108.474676 253 21896ft 209kts
25-Mar-20 18:37 39.110241 -108.549129 253 21813ft 210kts
25-Mar-20 18:38 39.094694 -108.624111 253 21810ft 208kts
25-Mar-20 18:39 39.079255 -108.698334 253 21829ft 210kts
25-Mar-20 18:40 39.063466 -108.773939 252 21826ft 211kts
25-Mar-20 18:41 39.042007 -108.846321 247 21824ft 211kts
25-Mar-20 18:42 39.018546 -108.918146 247 21827ft 210kts
25-Mar-20 18:43 38.995305 -108.989072 247 21833ft 210kts
25-Mar-20 18:44 38.972148 -109.059530 247 21832ft 210kts
25-Mar-20 18:45 38.948810 -109.130398 247 21823ft 210kts
25-Mar-20 18:46 38.925446 -109.201139 247 21803ft 210kts
25-Mar-20 18:47 38.902376 -109.270830 247 21789ft 209kts
25-Mar-20 18:48 38.879351 -109.340202 247 21788ft 210kts
25-Mar-20 18:49 38.856261 -109.409608 247 21785ft 210kts
25-Mar-20 18:50 38.833236 -109.478664 247 21783ft 210kts
25-Mar-20 18:51 38.810208 -109.547568 247 21783ft 210kts
25-Mar-20 18:52 38.787160 -109.616330 247 21781ft 209kts
25-Mar-20 18:53 38.764087 -109.685002 246 21797ft 209kts
25-Mar-20 18:54 38.740860 -109.754019 246 21795ft 211kts
25-Mar-20 18:55 38.717561 -109.823050 246 21794ft 211kts
25-Mar-20 18:56 38.694086 -109.892448 246 21793ft 211kts
25-Mar-20 18:57 38.670328 -109.962494 246 21791ft 211kts
25-Mar-20 18:58 38.646423 -110.032840 246 21790ft 210kts
25-Mar-20 18:59 38.622586 -110.102770 246 21789ft 210kts
25-Mar-20 19:00 38.598637 -110.172875 246 21787ft 210kts
25-Mar-20 19:01 38.574862 -110.242296 246 21785ft 210kts
25-Mar-20 19:02 38.550818 -110.312356 246 21784ft 209kts
25-Mar-20 19:03 38.526198 -110.383909 246 21782ft 209kts
25-Mar-20 19:04 38.501699 -110.454936 246 21783ft 209kts
25-Mar-20 19:05 38.477114 -110.526059 246 21779ft 208kts
25-Mar-20 19:06 38.452259 -110.597757 246 21778ft 207kts
25-Mar-20 19:07 38.427908 -110.667812 245 21794ft 207kts
25-Mar-20 19:08 38.400752 -110.735943 241 21792ft 208kts
25-Mar-20 19:09 38.370600 -110.804036 241 21799ft 208kts
25-Mar-20 19:10 38.340439 -110.871931 241 21809ft 208kts
25-Mar-20 19:11 38.310690 -110.938783 241 21824ft 209kts
25-Mar-20 19:12 38.281274 -111.004692 241 21843ft 208kts
25-Mar-20 19:13 38.252326 -111.069441 241 21862ft 208kts
25-Mar-20 19:14 38.223307 -111.134241 241 21876ft 207kts
25-Mar-20 19:15 38.194269 -111.198927 241 21874ft 207kts
25-Mar-20 19:16 38.165282 -111.263372 240 21872ft 207kts
25-Mar-20 19:17 38.136227 -111.327847 240 21870ft 207kts
25-Mar-20 19:18 38.107216 -111.392093 240 21870ft 206kts
25-Mar-20 19:19 38.078204 -111.456234 240 21869ft 206kts
25-Mar-20 19:20 38.049263 -111.520045 240 21867ft 205kts
25-Mar-20 19:21 38.020270 -111.583870 240 21866ft 205kts
25-Mar-20 19:22 37.991509 -111.647093 240 21864ft 205kts
25-Mar-20 19:23 37.962415 -111.710847 239 21880ft 207kts
25-Mar-20 19:24 37.933084 -111.775032 239 21878ft 207kts
25-Mar-20 19:25 37.903295 -111.840090 239 21878ft 207kts
25-Mar-20 19:26 37.873896 -111.904169 239 21899ft 208kts
25-Mar-20 19:27 37.844230 -111.968701 239 21909ft 209kts
25-Mar-20 19:28 37.814609 -112.033005 239 21921ft 208kts
25-Mar-20 19:29 37.784776 -112.097642 239 21932ft 208kts
25-Mar-20 19:30 37.755100 -112.161815 239 21936ft 208kts
25-Mar-20 19:31 37.725511 -112.225671 239 21934ft 207kts
25-Mar-20 19:32 37.695988 -112.289262 239 21933ft 207kts
25-Mar-20 19:33 37.661663 -112.349023 235 21932ft 207kts
25-Mar-20 19:34 37.625907 -112.407678 235 21930ft 207kts
25-Mar-20 19:35 37.590489 -112.465623 235 21928ft 206kts
25-Mar-20 19:36 37.555075 -112.523456 235 21927ft 205kts
25-Mar-20 19:37 37.519613 -112.581279 234 21927ft 205kts
25-Mar-20 19:38 37.484279 -112.638785 235 21925ft 204kts
25-Mar-20 19:39 37.448928 -112.696223 234 21940ft 206kts
25-Mar-20 19:40 37.413315 -112.753975 234 21938ft 207kts
25-Mar-20 19:41 37.377575 -112.811874 234 21935ft 207kts
25-Mar-20 19:42 37.341874 -112.869580 233 21912ft 207kts
25-Mar-20 19:43 37.306208 -112.927100 234 21890ft 206kts
25-Mar-20 19:44 37.270554 -112.984513 234 21866ft 206kts
25-Mar-20 19:45 37.235013 -113.041666 234 21847ft 205kts
25-Mar-20 19:46 37.199549 -113.098599 233 21847ft 204kts
25-Mar-20 19:47 37.164166 -113.155285 233 21849ft 204kts
25-Mar-20 19:49 37.128817 -113.211839 233 21852ft 203kts
25-Mar-20 19:50 37.093619 -113.268050 233 21852ft 203kts
25-Mar-20 19:51 37.058395 -113.324208 233 21851ft 202kts
25-Mar-20 19:52 37.023256 -113.380136 233 21850ft 202kts
25-Mar-20 19:53 36.988116 -113.435974 233 21848ft 202kts
25-Mar-20 19:54 36.952839 -113.491935 233 21847ft 202kts
25-Mar-20 19:55 36.917609 -113.547749 233 21845ft 201kts
25-Mar-20 19:56 36.882386 -113.603417 233 21858ft 202kts
25-Mar-20 19:57 36.846761 -113.659622 233 21871ft 203kts
25-Mar-20 19:58 36.807783 -113.721075 232 20555ft 238kts
25-Mar-20 19:59 36.762042 -113.793008 232 18055ft 257kts
25-Mar-20 20:00 36.715133 -113.866628 231 15445ft 263kts
25-Mar-20 20:01 36.670296 -113.936829 230 12817ft 241kts
25-Mar-20 20:02 36.628867 -114.001538 230 11991ft 221kts
25-Mar-20 20:03 36.587441 -114.066146 230 12002ft 236kts
25-Mar-20 20:04 36.551101 -114.138519 239 11999ft 239kts
25-Mar-20 20:04 36.522205 -114.202048 238 11647ft 250kts
25-Mar-20 20:06 36.479833 -114.294978 238 10537ft 253kts
25-Mar-20 20:07 36.444557 -114.372123 238 10161ft 244kts
25-Mar-20 20:07 36.415549 -114.435436 238 9997ft 240kts
25-Mar-20 20:08 36.381293 -114.508849 237 9997ft 236kts
25-Mar-20 20:10 36.340928 -114.594482 237 9997ft 238kts
25-Mar-20 20:10 36.311878 -114.656190 237 9967ft 240kts
25-Mar-20 20:11 36.276772 -114.730861 237 8942ft 244kts
25-Mar-20 20:13 36.235576 -114.818852 237 7733ft 245kts
25-Mar-20 20:13 36.206387 -114.880885 237 6998ft 240kts
25-Mar-20 20:14 36.175897 -114.952291 244 6997ft 225kts
25-Mar-20 20:15 36.167694 -115.028374 270 5008ft 210kts
25-Mar-20 20:16 36.166969 -115.086160 251 3828ft 81kts
25-Mar-20 20:17 36.157081 -115.111102 226 3403ft 81kts
25-Mar-20 20:18 36.137387 -115.131844 222 2882ft 93kts
25-Mar-20 20:19 36.115422 -115.147029 206 2524ft 87kts
25-Mar-20 20:20 36.093717 -115.159847 202 2120ft 72kts
25-Mar-20 20:21 36.083775 -115.166641 234 2151ft 0kts
25-Mar-20 20:22 36.083724 -115.166729 233 2152ft 2kts
25-Mar-20 20:23 36.081467 -115.169544 270 2165ft 12kts
25-Mar-20 20:24 36.081178 -115.171061 93 2168ft 0kts
25-Mar-20 20:25 36.081178 -115.171061 93 2168ft 0kts
25-Mar-20 20:26 36.081178 -115.171061 93 2168ft 0kts
25-Mar-20 20:27 36.081178 -115.171061 93 2168ft 0kts
25-Mar-20 20:28 36.081178 -115.171061 93 2168ft 0kts
25-Mar-20 20:29 36.081178 -115.171061 93 2168ft 0kts
25-Mar-20 20:30 36.081178 -115.171061 93 2168ft 0kts
25-Mar-20 20:31 36.081178 -115.171061 93 2168ft 0kts
25-Mar-20 20:32 36.081178 -115.171061 93 2168ft 0kts
25-Mar-20 20:33 36.081178 -115.171061 93 2168ft 0kts
25-Mar-20 20:34 36.081178 -115.171061 93 2168ft 0kts
25-Mar-20 20:35 36.081178 -115.171061 93 2168ft 0kts

Navigation Log

Ident Type
Flight plan parsing failed, navigation log unavailable